Time;durP1;ratioP1;P1;durP2;ratioP2;P2;SDS_P1;SDS_P2;PMS_P1;PMS_P2;Temp;Humidity;BMP_temperature;BMP_pressure;BME280_temperature;BME280_humidity;BME280_pressure;Samples;Min_cycle;Max_cycle;Signal;HPM_P1;HPM_P2
2023/12/04 00:02:03;;;;;;;20.07;14.03;;;;;;;-4.07;100.00;98256.03;4993975;28;20800;-74
2023/12/04 00:04:29;;;;;;;17.90;12.83;;;;;;;-4.02;100.00;98246.91;4994265;28;20436;-74
2023/12/04 00:06:56;;;;;;;19.40;14.53;;;;;;;-4.03;100.00;98240.06;4994764;28;20437;-74
2023/12/04 00:09:24;;;;;;;18.50;13.47;;;;;;;-3.99;100.00;98238.03;4994165;28;20518;-74
2023/12/04 00:11:50;;;;;;;19.37;13.97;;;;;;;-4.02;100.00;98233.91;4994124;28;20523;-74
2023/12/04 00:14:18;;;;;;;18.83;13.47;;;;;;;-4.01;100.00;98238.19;4993843;28;20472;-74
2023/12/04 00:16:45;;;;;;;19.00;13.80;;;;;;;-4.05;100.00;98241.16;4994153;28;20781;-74
2023/12/04 00:19:11;;;;;;;19.03;13.63;;;;;;;-4.07;100.00;98232.66;4994738;28;20467;-74
2023/12/04 00:21:38;;;;;;;18.07;12.80;;;;;;;-4.04;100.00;98220.25;4998214;28;20436;-74
2023/12/04 00:24:05;;;;;;;19.50;13.30;;;;;;;-4.02;100.00;98220.94;4998184;28;20439;-74
2023/12/04 00:26:31;;;;;;;17.43;13.20;;;;;;;-4.02;100.00;98214.94;4998053;28;20429;-74
2023/12/04 00:29:01;;;;;;;19.20;13.30;;;;;;;-4.12;100.00;98209.66;4997702;28;20971;-74
2023/12/04 00:31:28;;;;;;;17.50;13.00;;;;;;;-4.07;100.00;98206.72;4997673;28;20472;-74
2023/12/04 00:33:55;;;;;;;18.43;13.10;;;;;;;-4.12;100.00;98208.84;4997640;28;20788;-74
2023/12/04 00:36:21;;;;;;;17.40;13.17;;;;;;;-4.03;100.00;98202.91;4997658;28;20437;-74
2023/12/04 00:38:48;;;;;;;18.60;12.70;;;;;;;-4.08;100.00;98199.84;4998690;28;20436;-74
2023/12/04 00:41:14;;;;;;;18.87;12.83;;;;;;;-4.01;100.00;98185.44;4997853;28;20439;-74
2023/12/04 00:43:40;;;;;;;15.40;12.47;;;;;;;-3.90;100.00;98193.97;4997844;28;20443;-74
2023/12/04 00:46:07;;;;;;;19.97;12.93;;;;;;;-3.82;100.00;98189.00;4997796;28;20437;-74
2023/12/04 00:48:33;;;;;;;20.17;13.20;;;;;;;-4.00;100.00;98190.50;4997722;28;20467;-74
2023/12/04 00:51:00;;;;;;;18.10;12.50;;;;;;;-4.00;100.00;98177.53;4997593;28;20480;-74
2023/12/04 00:53:26;;;;;;;16.40;12.90;;;;;;;-3.96;100.00;98181.50;4997252;28;20452;-74
2023/12/04 00:55:52;;;;;;;16.63;12.27;;;;;;;-4.00;100.00;98185.31;4997607;28;20432;-74
2023/12/04 00:58:19;;;;;;;17.87;13.73;;;;;;;-4.00;100.00;98181.88;4997567;28;20446;-74
2023/12/04 01:00:48;;;;;;;17.57;13.17;;;;;;;-4.05;100.00;98169.28;4997424;28;20460;-74
2023/12/04 01:03:15;;;;;;;17.50;12.70;;;;;;;-4.02;100.00;98168.22;4997386;28;20441;-74
2023/12/04 01:05:41;;;;;;;16.07;12.60;;;;;;;-4.03;100.00;98169.97;4997369;28;20437;-74
2023/12/04 01:08:07;;;;;;;18.77;12.97;;;;;;;-3.96;100.00;98173.72;4996955;28;20449;-74
2023/12/04 01:10:34;;;;;;;18.20;13.13;;;;;;;-3.98;100.00;98164.41;4997198;28;20500;-74
2023/12/04 01:13:00;;;;;;;18.40;13.03;;;;;;;-3.96;100.00;98163.34;4996952;28;20928;-74
2023/12/04 01:15:26;;;;;;;16.17;11.60;;;;;;;-3.99;100.00;98166.19;4996867;28;20950;-74
2023/12/04 01:17:54;;;;;;;18.13;12.30;;;;;;;-4.06;100.00;98170.25;4996872;28;20932;-74
2023/12/04 01:20:22;;;;;;;17.83;13.17;;;;;;;-4.07;100.00;98165.97;4997003;28;20476;-74
2023/12/04 01:22:49;;;;;;;16.57;12.83;;;;;;;-4.09;100.00;98164.47;4997107;28;20495;-74
2023/12/04 01:25:15;;;;;;;18.23;12.73;;;;;;;-4.08;100.00;98159.16;4996741;28;20437;-74
2023/12/04 01:27:42;;;;;;;19.60;13.60;;;;;;;-4.10;100.00;98161.06;4996955;28;20443;-74
2023/12/04 01:30:09;;;;;;;19.10;13.00;;;;;;;-4.10;100.00;98162.81;4996298;28;20468;-74
2023/12/04 01:32:36;;;;;;;18.40;13.30;;;;;;;-4.14;100.00;98151.88;4996907;28;20451;-74
2023/12/04 01:35:03;;;;;;;18.60;12.87;;;;;;;-4.23;100.00;98142.25;4996873;28;20448;-74
2023/12/04 01:37:29;;;;;;;17.73;12.30;;;;;;;-4.22;100.00;98136.09;4996799;28;20441;-74
2023/12/04 01:39:56;;;;;;;19.03;12.50;;;;;;;-4.19;100.00;98138.44;4996672;28;20457;-74
2023/12/04 01:42:22;;;;;;;17.00;12.43;;;;;;;-4.21;100.00;98137.72;4996732;28;20448;-74
2023/12/04 01:44:48;;;;;;;19.10;12.17;;;;;;;-4.15;100.00;98132.06;4996709;28;20437;-74
2023/12/04 01:47:15;;;;;;;17.23;12.50;;;;;;;-4.22;100.00;98128.31;4996613;28;20441;-74
2023/12/04 01:49:42;;;;;;;16.73;11.83;;;;;;;-4.19;100.00;98133.25;4996575;28;20556;-74
2023/12/04 01:52:08;;;;;;;17.90;12.83;;;;;;;-4.22;100.00;98130.06;4996237;28;20485;-74
2023/12/04 01:54:34;;;;;;;17.27;12.37;;;;;;;-4.19;100.00;98138.44;4996162;28;20451;-74
2023/12/04 01:57:03;;;;;;;16.90;12.60;;;;;;;-4.25;100.00;98135.53;4996413;28;20432;-74
2023/12/04 01:59:29;;;;;;;17.20;12.77;;;;;;;-4.28;100.00;98128.81;4996306;28;20467;-74
2023/12/04 02:01:56;;;;;;;18.83;13.90;;;;;;;-4.18;100.00;98132.31;4996374;28;20433;-74
2023/12/04 02:04:22;;;;;;;18.47;13.40;;;;;;;-4.15;100.00;98128.63;4996314;28;20443;-74
2023/12/04 02:06:49;;;;;;;15.80;11.90;;;;;;;-4.18;100.00;98132.31;4996018;28;20933;-74
2023/12/04 02:09:16;;;;;;;18.03;12.90;;;;;;;-4.12;100.00;98129.19;4996156;28;20456;-74
2023/12/04 02:11:42;;;;;;;17.40;13.20;;;;;;;-4.05;100.00;98138.13;4995858;28;21078;-74
2023/12/04 02:14:09;;;;;;;17.50;13.00;;;;;;;-4.14;100.00;98133.69;4995825;28;20440;-74
2023/12/04 02:16:41;;;;;;;19.40;13.17;;;;;;;-4.04;100.00;98131.16;4996034;28;20441;-74
2023/12/04 02:19:13;;;;;;;17.40;12.87;;;;;;;-4.06;100.00;98122.69;4995681;28;20467;-74
2023/12/04 02:21:39;;;;;;;19.53;13.90;;;;;;;-4.01;100.00;98123.94;4995972;28;20436;-74
2023/12/04 02:24:06;;;;;;;20.30;14.03;;;;;;;-4.03;100.00;98112.84;4996004;28;20437;-74
2023/12/04 02:26:50;;;;;;;19.93;13.57;;;;;;;-4.02;100.00;98104.09;4995916;28;20436;-74
2023/12/04 02:29:27;;;;;;;18.13;12.90;;;;;;;-4.02;100.00;98105.91;4994651;28;20460;-74
2023/12/04 02:31:56;;;;;;;19.63;13.07;;;;;;;-3.99;100.00;98100.44;4995489;28;20967;-74
2023/12/04 02:34:24;;;;;;;17.40;12.53;;;;;;;-4.01;100.00;98094.56;4995776;28;20491;-74
2023/12/04 02:36:52;;;;;;;19.57;13.20;;;;;;;-4.09;100.00;98104.75;4995679;28;20444;-74
2023/12/04 02:39:19;;;;;;;19.27;13.50;;;;;;;-4.17;100.00;98113.19;4995618;28;20453;-74
2023/12/04 02:41:45;;;;;;;19.83;14.33;;;;;;;-4.11;100.00;98111.84;4993679;28;20443;-74
2023/12/04 02:44:12;;;;;;;21.07;14.47;;;;;;;-4.18;100.00;98113.28;4995601;28;20440;-74
2023/12/04 02:46:38;;;;;;;20.57;14.90;;;;;;;-4.31;100.00;98110.91;4995465;28;20452;-74
2023/12/04 02:49:05;;;;;;;18.63;13.57;;;;;;;-4.35;100.00;98103.47;4995472;28;20457;-74
2023/12/04 02:51:31;;;;;;;17.57;13.37;;;;;;;-4.34;100.00;98105.94;4995219;28;20539;-74
2023/12/04 02:53:58;;;;;;;19.90;13.47;;;;;;;-4.28;100.00;98099.44;4995456;28;20424;-74
2023/12/04 02:56:24;;;;;;;20.90;13.50;;;;;;;-4.37;100.00;98089.81;4995374;28;20433;-74
2023/12/04 02:58:50;;;;;;;19.40;13.70;;;;;;;-4.29;100.00;98077.84;4995220;28;20460;-74
2023/12/04 03:01:17;;;;;;;19.53;13.10;;;;;;;-4.42;100.00;98074.66;4995271;28;20436;-74
2023/12/04 03:03:43;;;;;;;19.13;13.77;;;;;;;-4.41;100.00;98062.47;4995200;28;20437;-74
2023/12/04 03:06:09;;;;;;;21.17;14.27;;;;;;;-4.38;100.00;98059.63;4995140;28;20436;-74
2023/12/04 03:08:36;;;;;;;21.73;14.33;;;;;;;-4.34;100.00;98058.44;4995103;28;20439;-74
2023/12/04 03:11:03;;;;;;;20.67;13.63;;;;;;;-4.55;100.00;98049.81;4994960;28;20494;-74
2023/12/04 03:13:30;;;;;;;19.67;13.10;;;;;;;-4.45;100.00;98043.75;4995074;28;20465;-74
2023/12/04 03:15:56;;;;;;;18.57;13.20;;;;;;;-4.38;100.00;98033.69;4994727;28;20437;-74
2023/12/04 03:18:23;;;;;;;18.90;13.23;;;;;;;-4.41;100.00;98032.19;4994913;28;20511;-74
2023/12/04 03:20:49;;;;;;;18.40;12.67;;;;;;;-4.32;100.00;98044.38;4994765;28;20469;-74
2023/12/04 03:23:15;;;;;;;16.07;11.73;;;;;;;-4.33;100.00;98034.97;4995604;28;20860;-74
2023/12/04 03:25:42;;;;;;;18.23;13.23;;;;;;;-4.29;100.00;98031.13;4994504;28;20794;-74
2023/12/04 03:28:08;;;;;;;20.60;13.00;;;;;;;-4.27;100.00;98029.25;4994826;28;20441;-74
2023/12/04 03:30:34;;;;;;;15.83;12.20;;;;;;;-4.21;100.00;98026.13;4994641;28;20455;-74
2023/12/04 03:33:01;;;;;;;18.43;12.80;;;;;;;-4.15;100.00;98020.44;4994615;28;20516;-74
2023/12/04 03:35:27;;;;;;;17.03;12.83;;;;;;;-4.10;100.00;98017.44;4994670;28;20463;-74
2023/12/04 03:37:54;;;;;;;16.80;11.80;;;;;;;-4.10;100.00;98015.69;4994628;28;20448;-74
2023/12/04 03:40:20;;;;;;;18.97;13.20;;;;;;;-4.20;100.00;98012.19;4994246;28;20464;-74
2023/12/04 03:42:47;;;;;;;19.60;13.27;;;;;;;-4.29;100.00;98002.59;4994199;28;20923;-74
2023/12/04 03:45:13;;;;;;;19.10;13.53;;;;;;;-4.19;100.00;97995.69;4994508;28;20441;-74
2023/12/04 03:47:39;;;;;;;18.87;13.00;;;;;;;-4.24;100.00;97987.47;4994469;28;20437;-74
2023/12/04 03:50:06;;;;;;;16.03;12.23;;;;;;;-4.19;100.00;97984.50;4994383;28;20461;-74
2023/12/04 03:52:33;;;;;;;20.03;13.77;;;;;;;-4.16;100.00;97976.44;4994033;28;20480;-74
2023/12/04 03:54:59;;;;;;;18.53;12.03;;;;;;;-4.07;100.00;97976.47;4994064;28;20433;-74
2023/12/04 03:57:25;;;;;;;17.50;11.50;;;;;;;-4.04;100.00;97983.19;4993920;28;20452;-74
2023/12/04 03:59:52;;;;;;;18.90;12.87;;;;;;;-4.01;100.00;97981.16;4994202;28;20465;-74
2023/12/04 04:02:18;;;;;;;17.13;12.37;;;;;;;-4.13;100.00;97979.59;4994255;28;20429;-74
2023/12/04 04:04:44;;;;;;;17.40;11.83;;;;;;;-4.13;100.00;97976.16;4994142;28;20439;-74
2023/12/04 04:07:11;;;;;;;16.77;12.63;;;;;;;-4.12;100.00;97975.25;4994022;28;20443;-74
2023/12/04 04:09:37;;;;;;;18.03;12.27;;;;;;;-4.18;100.00;97978.34;4993621;28;20453;-74
2023/12/04 04:12:04;;;;;;;16.20;11.43;;;;;;;-4.11;100.00;97977.69;4993752;28;20481;-74
2023/12/04 04:14:30;;;;;;;18.70;12.80;;;;;;;-4.17;100.00;97972.19;4994092;28;20456;-74
2023/12/04 04:16:56;;;;;;;15.93;11.17;;;;;;;-4.13;100.00;97976.16;4994010;28;20449;-74
2023/12/04 04:19:23;;;;;;;17.50;12.30;;;;;;;-4.07;100.00;97979.06;4993871;28;20467;-74
2023/12/04 04:21:49;;;;;;;20.60;12.03;;;;;;;-4.01;100.00;97968.19;4993870;28;20802;-74
2023/12/04 04:24:15;;;;;;;17.10;12.07;;;;;;;-4.07;100.00;97967.88;4993997;28;20559;-74
2023/12/04 04:26:42;;;;;;;16.60;12.33;;;;;;;-4.19;100.00;97963.72;4994008;28;20433;-74
2023/12/04 04:29:09;;;;;;;18.07;12.60;;;;;;;-4.12;100.00;97968.25;4993586;28;20467;-74
2023/12/04 04:31:36;;;;;;;18.67;12.83;;;;;;;-4.18;100.00;97975.75;4994535;28;20492;-74
2023/12/04 04:34:02;;;;;;;19.33;12.90;;;;;;;-4.14;100.00;97975.38;4993457;28;20450;-74
2023/12/04 04:36:29;;;;;;;20.07;12.73;;;;;;;-4.06;100.00;97978.13;4993834;28;20468;-74
2023/12/04 04:38:55;;;;;;;16.33;12.80;;;;;;;-4.20;100.00;97975.88;4993235;28;20487;-74
2023/12/04 04:41:22;;;;;;;17.73;12.07;;;;;;;-4.26;100.00;97978.16;4993560;28;20513;-74
2023/12/04 04:43:48;;;;;;;18.00;11.90;;;;;;;-4.26;100.00;97965.19;4993473;28;20932;-74
2023/12/04 04:46:14;;;;;;;17.53;12.57;;;;;;;-4.22;100.00;97970.00;4993913;28;20471;-74
2023/12/04 04:48:41;;;;;;;17.03;11.83;;;;;;;-4.18;100.00;97966.19;4993683;28;20445;-74
2023/12/04 04:51:08;;;;;;;17.03;11.73;;;;;;;-4.20;100.00;97964.69;4993529;28;20441;-74
2023/12/04 04:53:34;;;;;;;17.10;11.57;;;;;;;-4.23;100.00;97968.34;4993701;28;20447;-74
2023/12/04 04:56:01;;;;;;;15.17;10.70;;;;;;;-3.94;100.00;97971.09;4993615;28;20440;-74
2023/12/04 04:58:27;;;;;;;15.60;10.83;;;;;;;-3.84;100.00;97958.94;4993408;28;20946;-74
2023/12/04 05:00:53;;;;;;;15.67;11.20;;;;;;;-3.86;100.00;97956.47;4993174;28;20980;-74
2023/12/04 05:03:20;;;;;;;14.10;10.47;;;;;;;-3.76;100.00;97954.72;4993470;28;20437;-74
2023/12/04 05:05:46;;;;;;;15.07;10.20;;;;;;;-3.77;100.00;97950.47;4994754;28;20432;-74
2023/12/04 05:08:13;;;;;;;16.93;10.90;;;;;;;-3.79;100.00;97946.38;4997291;28;20439;-74
2023/12/04 05:10:40;;;;;;;14.07;10.80;;;;;;;-3.78;100.00;97946.25;4996444;28;20456;-74
2023/12/04 05:13:06;;;;;;;17.97;11.23;;;;;;;-3.88;100.00;97941.97;4996435;28;20511;-74
2023/12/04 05:15:32;;;;;;;18.67;12.27;;;;;;;-3.87;100.00;97934.06;4996559;28;20815;-74
2023/12/04 05:17:59;;;;;;;18.13;11.37;;;;;;;-3.91;100.00;97929.25;4996354;28;20443;-74
2023/12/04 05:20:25;;;;;;;18.20;11.27;;;;;;;-3.92;100.00;97925.84;4996638;28;20456;-74
2023/12/04 05:22:52;;;;;;;18.33;11.77;;;;;;;-3.82;100.00;97915.47;4996487;28;20439;-74
2023/12/04 05:25:18;;;;;;;16.57;11.53;;;;;;;-3.81;100.00;97917.94;4996671;28;20441;-74
2023/12/04 05:27:45;;;;;;;16.17;11.00;;;;;;;-3.96;100.00;97919.28;4996304;28;20523;-74
2023/12/04 05:30:12;;;;;;;17.67;11.87;;;;;;;-3.86;100.00;97912.34;4996724;28;20465;-74
2023/12/04 05:32:38;;;;;;;17.13;11.43;;;;;;;-4.03;100.00;97912.16;4996738;28;20486;-74
2023/12/04 05:35:05;;;;;;;17.77;11.23;;;;;;;-4.00;100.00;97901.50;4996566;28;20445;-74
2023/12/04 05:37:31;;;;;;;17.03;10.93;;;;;;;-4.00;100.00;97896.28;4996547;28;20443;-74
2023/12/04 05:39:58;;;;;;;15.53;10.30;;;;;;;-4.01;100.00;97895.50;4996376;28;20511;-74
2023/12/04 05:42:24;;;;;;;15.00;10.60;;;;;;;-4.10;100.00;97890.25;4996016;28;20920;-74
2023/12/04 05:44:55;;;;;;;14.60;10.27;;;;;;;-4.10;100.00;97885.06;4996505;28;20443;-74
2023/12/04 05:47:21;;;;;;;15.50;9.77;;;;;;;-4.02;100.00;97893.81;4996008;28;20472;-74
2023/12/04 05:49:47;;;;;;;14.40;10.20;;;;;;;-3.99;100.00;97888.38;4995612;28;20462;-73
2023/12/04 05:52:14;;;;;;;14.50;10.53;;;;;;;-4.11;100.00;97889.44;4995701;28;20484;-74
2023/12/04 05:54:40;;;;;;;14.40;10.20;;;;;;;-4.00;100.00;97891.09;4995673;28;20986;-74
2023/12/04 05:57:06;;;;;;;15.53;10.60;;;;;;;-4.05;100.00;97891.50;4995671;28;20774;-74
2023/12/04 05:59:33;;;;;;;13.10;9.17;;;;;;;-4.03;100.00;97886.19;4995731;28;21015;-74
2023/12/04 06:01:59;;;;;;;15.27;10.17;;;;;;;-4.08;100.00;97889.19;4995797;28;20796;-74
2023/12/04 06:04:26;;;;;;;13.80;9.43;;;;;;;-4.03;100.00;97891.38;4995791;28;20433;-74
2023/12/04 06:06:52;;;;;;;13.93;10.20;;;;;;;-4.08;100.00;97889.19;4995840;28;20444;-74
2023/12/04 06:09:19;;;;;;;13.70;9.40;;;;;;;-4.01;100.00;97894.66;4995774;28;20464;-74
2023/12/04 06:11:45;;;;;;;13.57;9.07;;;;;;;-4.05;100.00;97891.50;4995684;28;20477;-74
2023/12/04 06:14:11;;;;;;;15.50;10.43;;;;;;;-3.98;100.00;97895.22;4995380;28;20476;-74
2023/12/04 06:16:38;;;;;;;16.27;10.10;;;;;;;-3.97;100.00;97902.03;4994984;28;20499;-74
2023/12/04 06:19:05;;;;;;;12.50;9.10;;;;;;;-4.07;100.00;97908.19;4995248;28;20460;-74
2023/12/04 06:21:32;;;;;;;13.90;10.03;;;;;;;-4.11;100.00;97896.41;4995437;28;20488;-74
2023/12/04 06:23:59;;;;;;;16.27;10.17;;;;;;;-3.97;100.00;97896.84;4995349;28;20458;-74
2023/12/04 06:26:26;;;;;;;14.03;9.53;;;;;;;-3.88;100.00;97890.84;4995347;28;20807;-74
2023/12/04 06:28:52;;;;;;;15.10;10.00;;;;;;;-3.91;100.00;97891.13;4995297;28;20459;-74
2023/12/04 06:31:19;;;;;;;13.33;9.67;;;;;;;-3.91;100.00;97893.75;4995408;28;20437;-74
2023/12/04 06:33:45;;;;;;;13.83;10.03;;;;;;;-3.90;100.00;97892.78;4995188;28;20487;-74
2023/12/04 06:36:13;;;;;;;12.70;9.40;;;;;;;-3.99;100.00;97883.19;4995134;28;20444;-74
2023/12/04 06:38:41;;;;;;;14.57;10.13;;;;;;;-3.91;100.00;97885.94;4994960;28;20463;-74
2023/12/04 06:41:08;;;;;;;16.40;10.17;;;;;;;-3.81;100.00;97876.38;4995122;28;20433;-74
2023/12/04 06:43:35;;;;;;;14.17;9.83;;;;;;;-3.83;100.00;97867.94;4994951;28;20436;-74
2023/12/04 06:46:02;;;;;;;14.57;9.17;;;;;;;-3.82;100.00;97869.56;4994627;28;20883;-74
2023/12/04 06:48:28;;;;;;;15.03;9.37;;;;;;;-3.76;100.00;97868.22;4994404;28;20885;-74
2023/12/04 06:50:55;;;;;;;14.40;10.20;;;;;;;-3.76;100.00;97861.22;4994980;28;20780;-74
2023/12/04 06:53:21;;;;;;;12.80;8.97;;;;;;;-3.67;100.00;97855.22;4994478;28;20567;-74
2023/12/04 06:55:47;;;;;;;13.43;9.17;;;;;;;-3.73;100.00;97857.53;4994587;28;20437;-74
2023/12/04 06:58:14;;;;;;;14.57;10.30;;;;;;;-3.68;100.00;97861.38;4994612;28;20443;-74
2023/12/04 07:00:41;;;;;;;13.33;9.63;;;;;;;-3.62;100.00;97866.00;4995232;28;20484;-74
2023/12/04 07:03:08;;;;;;;13.77;10.20;;;;;;;-3.57;100.00;97874.22;4994781;28;20436;-74
2023/12/04 07:05:34;;;;;;;12.77;9.77;;;;;;;-3.55;100.00;97874.91;4994631;28;20451;-74
2023/12/04 07:08:01;;;;;;;15.70;10.00;;;;;;;-3.61;100.00;97864.25;4994134;28;20883;-74
2023/12/04 07:10:27;;;;;;;15.50;9.03;;;;;;;-3.68;100.00;97861.38;4994161;28;20828;-74
2023/12/04 07:12:53;;;;;;;12.73;9.20;;;;;;;-3.67;100.00;97854.41;4993780;28;20481;-74
2023/12/04 07:15:20;;;;;;;13.63;9.67;;;;;;;-3.70;100.00;97852.88;4994160;28;20839;-74
2023/12/04 07:17:46;;;;;;;15.17;10.17;;;;;;;-3.68;100.00;97847.56;4994085;28;20440;-74
2023/12/04 07:20:12;;;;;;;13.63;9.57;;;;;;;-3.64;100.00;97854.94;4994134;28;20461;-74
2023/12/04 07:22:39;;;;;;;15.70;10.13;;;;;;;-3.47;100.00;97848.25;4993810;28;21020;-74
2023/12/04 07:25:07;;;;;;;13.90;9.90;;;;;;;-3.48;100.00;97849.22;4993936;28;20437;-74
2023/12/04 07:27:34;;;;;;;18.23;10.07;;;;;;;-3.60;100.00;97852.91;4993857;28;20448;-74
2023/12/04 07:30:00;;;;;;;16.33;10.20;;;;;;;-3.64;100.00;97836.78;4994014;28;20465;-74
2023/12/04 07:32:27;;;;;;;13.87;9.93;;;;;;;-3.61;100.00;97836.47;4994110;28;20477;-74
2023/12/04 07:34:53;;;;;;;14.87;9.87;;;;;;;-3.50;100.00;97838.97;4994215;28;20468;-74
2023/12/04 07:37:19;;;;;;;15.57;10.33;;;;;;;-3.49;100.00;97838.00;4994043;28;20439;-74
2023/12/04 07:39:46;;;;;;;16.93;10.20;;;;;;;-3.47;100.00;97833.50;4994073;28;20453;-74
2023/12/04 07:42:13;;;;;;;15.93;10.63;;;;;;;-3.45;100.00;97830.72;4993632;28;20918;-74
2023/12/04 07:44:39;;;;;;;14.93;10.47;;;;;;;-3.40;100.00;97824.16;4993657;28;20447;-73
2023/12/04 07:47:05;;;;;;;15.77;10.73;;;;;;;-3.45;100.00;97826.38;4994073;28;20441;-73
2023/12/04 07:49:32;;;;;;;14.87;9.80;;;;;;;-3.42;100.00;97820.91;4993935;28;20467;-73
2023/12/04 07:51:58;;;;;;;14.77;10.20;;;;;;;-3.37;100.00;97828.28;4993773;28;20455;-74
2023/12/04 07:54:26;;;;;;;16.67;9.40;;;;;;;-3.27;100.00;97827.31;4993907;28;20452;-74
2023/12/04 07:56:53;;;;;;;14.07;9.90;;;;;;;-3.31;100.00;97828.53;4993635;28;20441;-73
2023/12/04 07:59:20;;;;;;;15.03;9.97;;;;;;;-3.27;100.00;97823.88;4993683;28;21039;-73
2023/12/04 08:01:46;;;;;;;15.93;10.37;;;;;;;-3.23;100.00;97818.28;4994006;28;20437;-73
2023/12/04 08:04:12;;;;;;;13.67;9.50;;;;;;;-3.04;100.00;97825.19;4993280;28;20433;-74
2023/12/04 08:06:39;;;;;;;12.87;9.50;;;;;;;-3.14;100.00;97819.22;4993614;28;20428;-74
2023/12/04 08:09:09;;;;;;;15.63;10.20;;;;;;;-2.96;100.00;97823.56;4993498;28;20499;-73
2023/12/04 08:11:36;;;;;;;13.70;9.57;;;;;;;-2.86;100.00;97823.50;4993562;28;20508;-73
2023/12/04 08:14:03;;;;;;;12.77;9.00;;;;;;;-2.78;100.00;97829.66;4993615;28;20555;-73
2023/12/04 08:16:30;;;;;;;12.83;9.13;;;;;;;-2.75;100.00;97825.97;4993458;28;20437;-74
2023/12/04 08:18:56;;;;;;;11.20;9.20;;;;;;;-2.85;100.00;97810.38;4993091;28;20540;-74
2023/12/04 08:21:23;;;;;;;12.80;9.43;;;;;;;-2.87;100.00;97801.91;4993517;28;20775;-74
2023/12/04 08:23:49;;;;;;;12.60;8.90;;;;;;;-2.97;100.00;97797.69;4993409;28;20562;-74
2023/12/04 08:26:25;;;;;;;12.37;8.60;;;;;;;-2.96;100.00;97807.94;4993553;28;20429;-73
2023/12/04 08:28:52;;;;;;;13.00;9.07;;;;;;;-2.75;100.00;97786.94;4993048;28;20466;-73
2023/12/04 08:31:18;;;;;;;13.87;9.43;;;;;;;-2.80;100.00;97781.34;4993446;28;20440;-73
2023/12/04 08:33:45;;;;;;;11.60;8.67;;;;;;;-2.58;100.00;97781.78;4992945;28;20487;-73
2023/12/04 08:36:12;;;;;;;11.73;8.63;;;;;;;-2.57;100.00;97777.41;4993466;28;20437;-74
2023/12/04 08:38:39;;;;;;;11.67;9.40;;;;;;;-2.64;100.00;97777.16;4993115;28;20476;-74
2023/12/04 08:41:05;;;;;;;15.13;9.40;;;;;;;-2.57;100.00;97780.00;4995639;28;20444;-74
2023/12/04 08:43:32;;;;;;;12.73;9.13;;;;;;;-2.60;100.00;97781.13;4997295;28;20433;-74
2023/12/04 08:46:00;;;;;;;12.23;9.37;;;;;;;-2.49;100.00;97778.31;4997274;28;20441;-73
2023/12/04 08:48:26;;;;;;;11.90;9.27;;;;;;;-2.44;100.00;97794.31;4996914;28;20444;-73
2023/12/04 08:50:53;;;;;;;12.43;8.83;;;;;;;-2.36;100.00;97791.81;4996999;28;20461;-73
2023/12/04 08:53:19;;;;;;;13.37;9.13;;;;;;;-2.36;100.00;97791.81;4997065;28;20488;-73
2023/12/04 08:55:45;;;;;;;12.83;9.40;;;;;;;-2.23;100.00;97775.84;4997142;28;20432;-73
2023/12/04 08:58:12;;;;;;;14.47;9.60;;;;;;;-2.16;100.00;97782.13;4997034;28;20443;-74
2023/12/04 09:00:42;;;;;;;12.70;9.67;;;;;;;-2.10;100.00;97784.13;4996805;28;20460;-74
2023/12/04 09:03:09;;;;;;;12.67;9.27;;;;;;;-1.91;100.00;97782.19;4996818;28;20541;-73
2023/12/04 09:05:35;;;;;;;12.23;9.40;;;;;;;-1.97;100.00;97779.38;4996473;28;20456;-73
2023/12/04 09:08:02;;;;;;;11.87;9.43;;;;;;;-1.99;100.00;97784.72;4997032;28;20436;-74
2023/12/04 09:10:28;;;;;;;13.40;9.30;;;;;;;-1.92;100.00;97790.16;4996769;28;20464;-74
2023/12/04 09:12:55;;;;;;;11.73;9.00;;;;;;;-1.85;100.00;97794.63;4997485;28;20486;-74
2023/12/04 09:15:21;;;;;;;12.33;9.53;;;;;;;-2.09;100.00;97783.97;4997183;28;20449;-74
2023/12/04 09:17:48;;;;;;;16.10;9.87;;;;;;;-1.94;100.00;97787.69;4996795;28;20480;-73
2023/12/04 09:20:14;;;;;;;12.50;9.53;;;;;;;-1.96;100.00;97776.63;4996896;28;20456;-73
2023/12/04 09:22:41;;;;;;;12.30;9.13;;;;;;;-1.99;100.00;97771.69;4996850;28;20491;-73
2023/12/04 09:25:08;;;;;;;11.63;8.93;;;;;;;-1.93;100.00;97773.72;4996691;28;20433;-74
2023/12/04 09:27:35;;;;;;;14.93;9.47;;;;;;;-1.77;100.00;97773.03;4996628;28;20441;-74
2023/12/04 09:30:02;;;;;;;13.47;9.27;;;;;;;-1.67;100.00;97776.41;4996278;28;20461;-74
2023/12/04 09:32:28;;;;;;;11.23;8.67;;;;;;;-1.67;100.00;97777.22;4996268;28;20536;-74
2023/12/04 09:34:55;;;;;;;11.73;8.47;;;;;;;-1.56;100.00;97771.78;4996532;28;20463;-74
2023/12/04 09:37:21;;;;;;;13.67;9.20;;;;;;;-1.53;100.00;97761.03;4996279;28;20441;-74
2023/12/04 09:39:49;;;;;;;15.43;9.40;;;;;;;-1.52;100.00;97767.91;4996365;28;20499;-74
2023/12/04 09:42:18;;;;;;;13.93;9.30;;;;;;;-1.56;100.00;97778.78;4996170;28;20452;-74
2023/12/04 09:44:45;;;;;;;12.63;8.80;;;;;;;-1.71;100.00;97782.88;4995976;28;20495;-74
2023/12/04 09:47:12;;;;;;;11.07;9.10;;;;;;;-1.81;100.00;97764.72;4996537;28;20527;-73
2023/12/04 09:49:39;;;;;;;12.00;9.30;;;;;;;-1.91;100.00;97771.78;4996271;28;20973;-73
2023/12/04 09:52:05;;;;;;;13.90;9.63;;;;;;;-1.74;100.00;97770.97;4996116;28;20456;-74
2023/12/04 09:54:34;;;;;;;13.33;8.83;;;;;;;-1.79;100.00;97778.41;4996097;28;20488;-74
2023/12/04 09:57:01;;;;;;;11.33;9.53;;;;;;;-1.94;100.00;97769.47;4995779;28;20941;-73
2023/12/04 09:59:30;;;;;;;12.80;9.27;;;;;;;-1.99;100.00;97771.69;4996130;28;20453;-73
2023/12/04 10:01:57;;;;;;;12.77;8.77;;;;;;;-1.97;100.00;97777.59;4995842;28;20956;-73
2023/12/04 10:04:25;;;;;;;13.70;9.23;;;;;;;-1.88;100.00;97784.53;4996248;28;20437;-73
2023/12/04 10:06:53;;;;;;;15.17;9.13;;;;;;;-1.83;100.00;97765.81;4996135;28;20445;-73
2023/12/04 10:09:22;;;;;;;13.77;9.37;;;;;;;-1.71;100.00;97743.78;4995995;28;20476;-73
2023/12/04 10:11:49;;;;;;;14.30;9.13;;;;;;;-1.68;100.00;97741.69;4995872;28;20441;-73
2023/12/04 10:14:20;;;;;;;11.27;9.13;;;;;;;-1.57;100.00;97744.06;4995477;28;20481;-73
2023/12/04 10:16:47;;;;;;;10.93;9.23;;;;;;;-1.46;100.00;97751.66;4995625;28;20429;-73
2023/12/04 10:19:20;;;;;;;15.37;9.57;;;;;;;-1.46;100.00;97741.22;4995372;28;20453;-73
2023/12/04 10:21:48;;;;;;;14.47;9.50;;;;;;;-1.51;100.00;97753.06;4995717;28;20449;-73
2023/12/04 10:24:28;;;;;;;13.63;9.93;;;;;;;-1.59;100.00;97743.41;4995736;28;20802;-74
2023/12/04 10:26:56;;;;;;;16.50;9.40;;;;;;;-1.45;100.00;97752.44;4995747;28;20912;-75
2023/12/04 10:29:22;;;;;;;14.63;10.97;;;;;;;-1.48;100.00;97737.94;4995440;28;20559;-74
2023/12/04 10:31:52;;;;;;;15.97;9.83;;;;;;;-1.26;100.00;97744.47;4995214;28;20958;-74
2023/12/04 10:34:19;;;;;;;12.27;9.07;;;;;;;-1.21;100.00;97734.38;4995247;28;20516;-72
2023/12/04 10:36:47;;;;;;;13.07;9.23;;;;;;;-1.02;100.00;97734.16;4995384;28;20445;-75
2023/12/04 10:39:13;;;;;;;13.00;9.43;;;;;;;-1.09;100.00;97725.31;4994971;28;20460;-75
2023/12/04 10:41:40;;;;;;;16.50;10.43;;;;;;;-1.21;100.00;97711.72;4995088;28;20440;-75
2023/12/04 10:44:06;;;;;;;17.33;10.30;;;;;;;-1.07;100.00;97718.97;4994834;28;20210;-75
2023/12/04 10:46:34;;;;;;;13.13;9.70;;;;;;;-1.02;100.00;97703.69;4995445;28;20207;-74
2023/12/04 10:49:02;;;;;;;13.83;9.37;;;;;;;-0.84;100.00;97704.44;4995343;28;20227;-74
2023/12/04 10:51:31;;;;;;;16.40;9.63;;;;;;;-0.89;100.00;97704.06;4994886;28;21007;-74
2023/12/04 10:53:57;;;;;;;14.57;9.67;;;;;;;-0.74;100.00;97697.28;4994778;28;20821;-74
2023/12/04 10:56:30;;;;;;;13.67;10.27;;;;;;;-0.72;100.00;97692.72;4994800;28;20582;-74
2023/12/04 10:59:01;;;;;;;14.27;9.53;;;;;;;-0.66;100.00;97688.66;4993486;28;20233;-75
2023/12/04 11:01:28;;;;;;;15.67;9.27;;;;;;;-0.53;100.00;97684.63;4995018;28;20810;-75
2023/12/04 11:03:59;;;;;;;13.93;9.57;;;;;;;-0.59;100.00;97677.44;4994065;28;20554;-75
2023/12/04 11:06:30;;;;;;;15.67;10.43;;;;;;;-0.47;100.00;97663.13;4995088;28;20198;-75
2023/12/04 11:08:59;;;;;;;14.70;10.67;;;;;;;-0.50;100.00;97650.38;4994938;28;20281;-75
2023/12/04 11:11:34;;;;;;;14.97;10.47;;;;;;;-0.36;100.00;97628.06;4994857;28;20211;-75